sensor_id;sensor_type;location;lat;lon;timestamp;P1;durP1;ratioP1;P2;durP2;ratioP2
44212;SDS011;29882;46.356;17.798;2022-10-22T20:20:52;16.95;;;11.60;;
44212;SDS011;29882;46.356;17.798;2022-10-22T20:23:20;22.88;;;12.27;;
44212;SDS011;29882;46.356;17.798;2022-10-22T20:25:47;16.85;;;12.07;;
44212;SDS011;29882;46.356;17.798;2022-10-22T20:28:15;24.55;;;12.13;;
44212;SDS011;29882;46.356;17.798;2022-10-22T20:30:42;27.35;;;14.18;;
44212;SDS011;29882;46.356;17.798;2022-10-22T20:33:13;19.05;;;14.23;;
44212;SDS011;29882;46.356;17.798;2022-10-22T20:35:40;18.58;;;15.48;;
44212;SDS011;29882;46.356;17.798;2022-10-22T20:38:09;22.33;;;15.63;;
44212;SDS011;29882;46.356;17.798;2022-10-22T20:40:40;28.27;;;15.60;;
44212;SDS011;29882;46.356;17.798;2022-10-22T20:43:07;20.55;;;16.30;;
44212;SDS011;29882;46.356;17.798;2022-10-22T20:45:38;25.52;;;17.85;;
44212;SDS011;29882;46.356;17.798;2022-10-22T20:48:05;21.85;;;16.35;;
44212;SDS011;29882;46.356;17.798;2022-10-22T20:50:33;21.52;;;16.88;;
44212;SDS011;29882;46.356;17.798;2022-10-22T20:53:00;22.05;;;17.27;;
44212;SDS011;29882;46.356;17.798;2022-10-22T20:55:28;23.63;;;17.27;;
44212;SDS011;29882;46.356;17.798;2022-10-22T20:57:55;22.23;;;17.77;;
44212;SDS011;29882;46.356;17.798;2022-10-22T21:00:24;26.08;;;17.98;;
44212;SDS011;29882;46.356;17.798;2022-10-22T21:02:52;32.60;;;18.00;;
44212;SDS011;29882;46.356;17.798;2022-10-22T21:05:20;23.83;;;18.92;;
44212;SDS011;29882;46.356;17.798;2022-10-22T21:07:47;23.63;;;18.33;;
44212;SDS011;29882;46.356;17.798;2022-10-22T21:10:14;24.65;;;18.33;;
44212;SDS011;29882;46.356;17.798;2022-10-22T21:12:41;23.95;;;18.23;;
44212;SDS011;29882;46.356;17.798;2022-10-22T21:15:09;23.13;;;18.13;;
44212;SDS011;29882;46.356;17.798;2022-10-22T21:17:38;21.90;;;17.60;;
44212;SDS011;29882;46.356;17.798;2022-10-22T21:20:06;21.95;;;16.63;;
44212;SDS011;29882;46.356;17.798;2022-10-22T21:22:33;23.50;;;16.77;;
44212;SDS011;29882;46.356;17.798;2022-10-22T21:25:02;19.88;;;16.98;;
44212;SDS011;29882;46.356;17.798;2022-10-22T21:27:29;23.88;;;16.25;;
44212;SDS011;29882;46.356;17.798;2022-10-22T21:29:56;30.30;;;17.60;;
44212;SDS011;29882;46.356;17.798;2022-10-22T21:32:23;26.80;;;17.15;;
44212;SDS011;29882;46.356;17.798;2022-10-22T21:34:51;33.20;;;18.73;;
44212;SDS011;29882;46.356;17.798;2022-10-22T21:37:18;28.25;;;18.60;;
44212;SDS011;29882;46.356;17.798;2022-10-22T21:39:48;30.92;;;18.02;;
44212;SDS011;29882;46.356;17.798;2022-10-22T21:42:15;26.73;;;17.77;;
44212;SDS011;29882;46.356;17.798;2022-10-22T21:44:42;29.73;;;18.40;;
44212;SDS011;29882;46.356;17.798;2022-10-22T21:47:09;27.20;;;19.38;;
44212;SDS011;29882;46.356;17.798;2022-10-22T21:49:36;24.85;;;17.67;;
44212;SDS011;29882;46.356;17.798;2022-10-22T21:52:03;25.70;;;18.17;;
44212;SDS011;29882;46.356;17.798;2022-10-22T21:54:32;23.38;;;16.48;;
44212;SDS011;29882;46.356;17.798;2022-10-22T21:57:01;20.80;;;16.25;;
44212;SDS011;29882;46.356;17.798;2022-10-22T21:59:28;23.92;;;16.63;;
44212;SDS011;29882;46.356;17.798;2022-10-22T22:01:58;23.42;;;16.20;;
44212;SDS011;29882;46.356;17.798;2022-10-22T22:04:31;22.70;;;16.40;;
44212;SDS011;29882;46.356;17.798;2022-10-22T22:06:58;24.27;;;16.88;;
44212;SDS011;29882;46.356;17.798;2022-10-22T22:09:25;24.27;;;17.17;;
44212;SDS011;29882;46.356;17.798;2022-10-22T22:11:52;20.85;;;16.77;;
44212;SDS011;29882;46.356;17.798;2022-10-22T22:14:19;21.95;;;16.08;;
44212;SDS011;29882;46.356;17.798;2022-10-22T22:16:46;20.83;;;15.45;;
44212;SDS011;29882;46.356;17.798;2022-10-22T22:19:13;23.30;;;16.27;;
44212;SDS011;29882;46.356;17.798;2022-10-22T22:21:40;20.80;;;16.38;;
44212;SDS011;29882;46.356;17.798;2022-10-22T22:24:07;19.30;;;16.25;;
44212;SDS011;29882;46.356;17.798;2022-10-22T22:26:38;19.15;;;16.40;;
44212;SDS011;29882;46.356;17.798;2022-10-22T22:29:05;21.77;;;17.58;;
44212;SDS011;29882;46.356;17.798;2022-10-22T22:31:33;21.05;;;17.10;;
44212;SDS011;29882;46.356;17.798;2022-10-22T22:34:02;20.90;;;16.90;;
44212;SDS011;29882;46.356;17.798;2022-10-22T22:36:36;21.75;;;16.80;;
44212;SDS011;29882;46.356;17.798;2022-10-22T22:39:06;19.77;;;16.02;;
44212;SDS011;29882;46.356;17.798;2022-10-22T22:41:35;19.30;;;16.45;;
44212;SDS011;29882;46.356;17.798;2022-10-22T22:44:02;22.13;;;17.30;;
44212;SDS011;29882;46.356;17.798;2022-10-22T22:46:30;22.48;;;16.17;;
44212;SDS011;29882;46.356;17.798;2022-10-22T22:48:57;18.10;;;15.20;;
44212;SDS011;29882;46.356;17.798;2022-10-22T22:51:24;20.00;;;15.70;;
44212;SDS011;29882;46.356;17.798;2022-10-22T22:53:51;19.58;;;16.25;;
44212;SDS011;29882;46.356;17.798;2022-10-22T22:56:19;20.10;;;16.42;;
44212;SDS011;29882;46.356;17.798;2022-10-22T22:58:48;18.38;;;15.70;;
44212;SDS011;29882;46.356;17.798;2022-10-22T23:01:20;18.63;;;15.70;;
44212;SDS011;29882;46.356;17.798;2022-10-22T23:04:10;19.80;;;15.30;;
44212;SDS011;29882;46.356;17.798;2022-10-22T23:06:39;18.92;;;15.38;;
44212;SDS011;29882;46.356;17.798;2022-10-22T23:09:07;16.75;;;14.60;;
44212;SDS011;29882;46.356;17.798;2022-10-22T23:11:35;18.00;;;15.43;;
44212;SDS011;29882;46.356;17.798;2022-10-22T23:14:04;17.45;;;15.00;;
44212;SDS011;29882;46.356;17.798;2022-10-22T23:16:34;18.92;;;15.00;;
44212;SDS011;29882;46.356;17.798;2022-10-22T23:19:03;19.65;;;16.17;;
44212;SDS011;29882;46.356;17.798;2022-10-22T23:21:31;17.08;;;14.85;;
44212;SDS011;29882;46.356;17.798;2022-10-22T23:24:02;19.13;;;15.23;;
44212;SDS011;29882;46.356;17.798;2022-10-22T23:26:34;19.10;;;15.65;;
44212;SDS011;29882;46.356;17.798;2022-10-22T23:29:05;21.10;;;16.60;;
44212;SDS011;29882;46.356;17.798;2022-10-22T23:31:35;20.27;;;16.63;;
44212;SDS011;29882;46.356;17.798;2022-10-22T23:34:03;18.77;;;16.15;;
44212;SDS011;29882;46.356;17.798;2022-10-22T23:36:32;19.85;;;15.27;;
44212;SDS011;29882;46.356;17.798;2022-10-22T23:39:02;18.63;;;15.88;;
44212;SDS011;29882;46.356;17.798;2022-10-22T23:41:34;17.00;;;15.23;;
44212;SDS011;29882;46.356;17.798;2022-10-22T23:44:02;17.88;;;15.98;;
44212;SDS011;29882;46.356;17.798;2022-10-22T23:46:29;18.35;;;15.57;;
44212;SDS011;29882;46.356;17.798;2022-10-22T23:48:56;17.92;;;15.68;;
44212;SDS011;29882;46.356;17.798;2022-10-22T23:51:24;19.60;;;16.30;;
44212;SDS011;29882;46.356;17.798;2022-10-22T23:53:55;18.35;;;15.20;;
44212;SDS011;29882;46.356;17.798;2022-10-22T23:56:23;17.27;;;15.40;;
44212;SDS011;29882;46.356;17.798;2022-10-22T23:58:52;18.73;;;15.55;;
